Terminal Aerodrome Forecast
Issued by NWS

Home | Current Version | Previous Version | Text Only | Print | Product List | Glossary On
Versions: 1 2 3 4 5 6 7 8 9 10 11 12 13 14 15 16 17 18 19
000
FTAK31 PAJN 171700 RRA
TAFAGY
TAF
PAGY 171743Z 1718/1818 21006KT P6SM SCT007 BKN015 OVC050
     FM172000 21010KT P6SM SCT020 BKN050 BKN200
     FM180300 21014KT P6SM BKN060 OVC100
     FM180900 20007KT P6SM BKN070 OVC120
     FM181500 00000KT P6SM VCSH BKN060 OVC090
      AMD LTD TO CLD VIS AND WIND=

USA.gov is the U.S. government's official web portal to all federal, state and local government web resources and services.